This is the latest recevied weather packets stored in our database for station/object KQ4EHY-1. If no packets are shown the sender has not sent any weather packets the latest 10 day(s).
| Time | Temp. | Humidity | Pressure | Rain* | Wind** | Luminosity | Snow |
|---|---|---|---|---|---|---|---|
| 1778090649 | 27.78° C | 60% | 1009.4 hPa | 0 mm | 0.89 m/s, 307° | - | - |
| 1778090589 | 27.78° C | 60% | 1009.4 hPa | 0 mm | 0.89 m/s, 307° | - | - |
| 1778090529 | 27.78° C | 60% | 1009.4 hPa | 0 mm | 0.89 m/s, 307° | - | - |
| 1778090469 | 27.78° C | 60% | 1009.4 hPa | 0 mm | 0.89 m/s, 307° | - | - |
| 1778090409 | 27.78° C | 56% | 1009.6 hPa | 0 mm | 0.45 m/s, 4° | - | - |
| 1778090349 | 27.78° C | 56% | 1009.6 hPa | 0 mm | 0.45 m/s, 4° | - | - |
| 1778090289 | 27.78° C | 56% | 1009.6 hPa | 0 mm | 0.45 m/s, 4° | - | - |
| 1778090230 | 27.78° C | 56% | 1009.6 hPa | 0 mm | 0.45 m/s, 4° | - | - |
| 1778090170 | 27.78° C | 56% | 1009.6 hPa | 0 mm | 0.45 m/s, 4° | - | - |
| 1778090109 | 27.78° C | 53% | 1009.5 hPa | 0 mm | 0.45 m/s, 2° | - | - |
| 1778090049 | 27.78° C | 53% | 1009.5 hPa | 0 mm | 0.45 m/s, 2° | - | - |
| 1778089989 | 27.78° C | 53% | 1009.5 hPa | 0 mm | 0.45 m/s, 2° | - | - |
| 1778089929 | 27.78° C | 53% | 1009.5 hPa | 0 mm | 0.45 m/s, 2° | - | - |
| 1778089869 | 27.78° C | 53% | 1009.5 hPa | 0 mm | 0.45 m/s, 2° | - | - |
| 1778089810 | 27.78° C | 55% | 1009.5 hPa | 0 mm | 0.89 m/s, 356° | - | - |
| 1778089749 | 27.78° C | 55% | 1009.5 hPa | 0 mm | 0.89 m/s, 356° | - | - |
| 1778089689 | 27.78° C | 55% | 1009.5 hPa | 0 mm | 0.89 m/s, 356° | - | - |
| 1778089629 | 27.78° C | 55% | 1009.5 hPa | 0 mm | 0.89 m/s, 356° | - | - |
| 1778089569 | 27.78° C | 55% | 1009.5 hPa | 0 mm | 0.89 m/s, 356° | - | - |
| 1778089509 | 27.78° C | 54% | 1009.4 hPa | 0 mm | 0.45 m/s, 341° | - | - |
| 1778089450 | 27.78° C | 54% | 1009.4 hPa | 0 mm | 0.45 m/s, 341° | - | - |
| 1778089390 | 27.78° C | 54% | 1009.4 hPa | 0 mm | 0.45 m/s, 341° | - | - |
| 1778089329 | 27.78° C | 54% | 1009.4 hPa | 0 mm | 0.45 m/s, 341° | - | - |
| 1778089269 | 27.78° C | 54% | 1009.4 hPa | 0 mm | 0.45 m/s, 341° | - | - |
| 1778089210 | 27.78° C | 55% | 1009.5 hPa | 0 mm | 0.45 m/s, 14° | - | - |
* Rain latest hour (hover to see other rain measurements)
** Current wind speed in m/s (hover to see current wind gust speed)